createdAt,value
2023-04-19T00:00:12.367Z,81.50
2023-04-19T00:03:16.022Z,80.96
2023-04-19T00:06:21.176Z,81.91
2023-04-19T00:09:24.151Z,82.34
2023-04-19T00:12:27.193Z,82.50
2023-04-19T00:15:30.251Z,81.58
2023-04-19T00:18:33.808Z,81.42
2023-04-19T00:21:37.225Z,80.90
2023-04-19T00:24:40.405Z,81.88
2023-04-19T00:27:43.392Z,81.67
2023-04-19T00:30:46.661Z,81.95
2023-04-19T00:33:49.895Z,81.47
2023-04-19T00:36:53.132Z,81.64
2023-04-19T00:39:56.548Z,81.34
2023-04-19T00:42:59.919Z,81.59
2023-04-19T00:46:03.473Z,80.92
2023-04-19T00:49:07.047Z,81.46
2023-04-19T00:52:10.825Z,80.68
2023-04-19T00:55:14.823Z,81.15
2023-04-19T00:58:19.071Z,81.38
2023-04-19T01:01:22.725Z,81.11
2023-04-19T01:04:26.655Z,81.31
2023-04-19T01:07:29.923Z,80.13
2023-04-19T01:10:32.971Z,80.02
2023-04-19T01:13:36.135Z,80.51
2023-04-19T01:16:39.423Z,80.46
2023-04-19T01:19:42.876Z,81.36
2023-04-19T01:22:46.397Z,80.93
2023-04-19T01:25:50.395Z,80.93
2023-04-19T01:28:53.555Z,81.60
2023-04-19T01:31:56.941Z,81.06
2023-04-19T01:35:02.871Z,80.62
2023-04-19T01:38:06.668Z,81.70
2023-04-19T01:41:10.216Z,79.68
2023-04-19T01:44:13.728Z,80.47
2023-04-19T01:47:17.026Z,80.85
2023-04-19T01:50:20.351Z,81.31
2023-04-19T01:53:23.757Z,81.18
2023-04-19T01:56:26.765Z,81.48
2023-04-19T01:59:30.138Z,80.72
2023-04-19T02:02:33.220Z,80.22
2023-04-19T02:05:39.712Z,80.12
2023-04-19T02:08:43.430Z,80.27
2023-04-19T02:11:46.781Z,79.77
2023-04-19T02:14:50.043Z,79.49
2023-04-19T02:17:53.145Z,80.33
2023-04-19T02:20:56.861Z,79.29
2023-04-19T02:23:59.881Z,80.21
2023-04-19T02:27:03.233Z,80.46
2023-04-19T02:30:09.692Z,80.08
2023-04-19T02:33:13.024Z,79.72
2023-04-19T02:36:16.081Z,79.83
2023-04-19T02:39:19.056Z,80.05
2023-04-19T02:42:21.962Z,80.57
2023-04-19T02:45:25.415Z,80.91
2023-04-19T02:48:31.257Z,80.06
2023-04-19T02:51:34.396Z,80.87
2023-04-19T02:54:37.705Z,80.59
2023-04-19T02:57:41.372Z,81.00
2023-04-19T03:00:46.465Z,81.11
2023-04-19T03:03:52.645Z,80.60
2023-04-19T03:06:55.889Z,81.24
2023-04-19T03:09:59.721Z,81.03
2023-04-19T03:13:02.691Z,80.52
2023-04-19T03:16:07.586Z,80.32
2023-04-19T03:19:11.030Z,80.21
2023-04-19T03:22:21.578Z,81.03
2023-04-19T03:25:24.982Z,81.57
2023-04-19T03:28:36.271Z,81.04
2023-04-19T03:31:58.071Z,81.16
2023-04-19T03:35:01.430Z,81.00
2023-04-19T03:38:05.719Z,80.90
2023-04-19T03:41:19.131Z,80.58
2023-04-19T03:44:23.374Z,79.85
2023-04-19T03:47:26.563Z,80.05
2023-04-19T03:50:33.116Z,79.65
2023-04-19T03:53:37.036Z,79.33
2023-04-19T03:56:40.416Z,79.61
2023-04-19T03:59:44.304Z,79.55
2023-04-19T04:02:47.895Z,78.68
2023-04-19T04:05:50.936Z,78.94
2023-04-19T04:08:54.344Z,78.17
2023-04-19T04:11:57.881Z,78.34
2023-04-19T04:15:01.117Z,77.82
2023-04-19T04:18:08.495Z,77.35
2023-04-19T04:21:12.323Z,76.43
2023-04-19T04:24:20.389Z,76.03
2023-04-19T04:27:52.536Z,75.32
2023-04-19T04:31:00.478Z,75.66
2023-04-19T04:34:09.388Z,74.99
2023-04-19T04:37:18.117Z,73.16
2023-04-19T04:40:22.640Z,72.73
2023-04-19T04:43:29.348Z,73.63
2023-04-19T04:46:32.645Z,72.80
2023-04-19T04:49:36.583Z,73.30
2023-04-19T04:52:40.282Z,73.71
2023-04-19T04:55:47.862Z,72.49
2023-04-19T04:58:51.204Z,72.45
2023-04-19T05:02:03.266Z,71.39
2023-04-19T05:05:06.800Z,70.33
2023-04-19T05:08:09.788Z,68.91
2023-04-19T05:11:15.409Z,70.08
2023-04-19T05:14:19.773Z,67.80
2023-04-19T05:17:23.105Z,66.71
2023-04-19T05:20:26.592Z,67.56
2023-04-19T05:23:38.609Z,66.52
2023-04-19T05:26:42.221Z,64.78
2023-04-19T05:29:46.257Z,62.45
2023-04-19T05:32:49.461Z,62.45
2023-04-19T05:35:54.510Z,62.15
2023-04-19T05:38:58.027Z,57.30
2023-04-19T05:42:01.978Z,57.10
2023-04-19T05:45:07.488Z,55.48
2023-04-19T05:48:11.068Z,55.83
2023-04-19T05:51:38.976Z,55.94
2023-04-19T05:54:46.274Z,55.09
2023-04-19T05:57:49.692Z,55.18
2023-04-19T06:00:52.971Z,55.25
2023-04-19T06:03:58.326Z,57.04
2023-04-19T06:07:03.106Z,58.30
2023-04-19T06:10:08.277Z,58.15
2023-04-19T06:13:11.977Z,58.74
2023-04-19T06:16:15.423Z,58.17
2023-04-19T06:19:18.537Z,56.70
2023-04-19T06:22:22.716Z,56.17
2023-04-19T06:25:26.952Z,56.53
2023-04-19T06:28:29.861Z,55.73
2023-04-19T06:31:34.108Z,56.14
2023-04-19T06:34:37.337Z,55.28
2023-04-19T06:37:40.948Z,54.84
2023-04-19T06:40:44.278Z,53.17
2023-04-19T06:43:48.893Z,53.79
2023-04-19T06:46:52.486Z,54.87
2023-04-19T06:49:57.093Z,54.29
2023-04-19T06:53:01.183Z,53.71
2023-04-19T06:56:06.282Z,56.73
2023-04-19T06:59:09.856Z,56.67
2023-04-19T07:02:13.534Z,55.81
2023-04-19T07:05:17.590Z,54.31
2023-04-19T07:08:20.699Z,55.74
2023-04-19T07:11:25.167Z,57.31
2023-04-19T07:14:29.451Z,58.06
2023-04-19T07:17:39.826Z,60.09
2023-04-19T07:20:46.946Z,58.43
2023-04-19T07:23:50.376Z,56.17
2023-04-19T07:26:54.100Z,55.65
2023-04-19T07:29:57.449Z,55.19
2023-04-19T07:33:00.995Z,56.48
2023-04-19T07:36:04.288Z,55.49
2023-04-19T07:39:08.302Z,57.00
2023-04-19T07:42:12.040Z,54.15
2023-04-19T07:45:15.517Z,53.67
2023-04-19T07:48:19.233Z,54.95
2023-04-19T07:51:24.787Z,54.24
2023-04-19T07:54:28.330Z,55.35
2023-04-19T07:57:31.853Z,55.32
2023-04-19T08:00:39.637Z,57.48
2023-04-19T08:03:47.496Z,58.68
2023-04-19T08:06:53.295Z,57.13
2023-04-19T08:09:56.960Z,56.96
2023-04-19T08:13:05.373Z,57.00
2023-04-19T08:19:16.678Z,56.09
2023-04-19T08:22:21.822Z,55.78
2023-04-19T08:25:28.781Z,57.28
2023-04-19T08:28:32.120Z,58.57
2023-04-19T08:31:39.696Z,58.76
2023-04-19T08:34:43.984Z,59.20
2023-04-19T08:37:48.897Z,54.65
2023-04-19T08:40:53.302Z,56.14
2023-04-19T08:43:59.489Z,57.01
2023-04-19T08:47:03.170Z,56.21
2023-04-19T08:50:20.578Z,55.51
2023-04-19T08:53:36.071Z,56.86
2023-04-19T08:56:39.926Z,56.96
2023-04-19T08:59:45.855Z,56.10
2023-04-19T09:02:52.484Z,57.02
2023-04-19T09:05:57.261Z,57.18
2023-04-19T09:12:28.067Z,59.22
2023-04-19T09:15:39.630Z,58.88
2023-04-19T09:19:02.435Z,57.68
2023-04-19T09:22:23.980Z,57.84
2023-04-19T09:28:33.246Z,55.81
2023-04-19T09:31:50.551Z,54.89
2023-04-19T09:34:59.930Z,55.83
2023-04-19T09:38:06.855Z,52.85
2023-04-19T09:41:11.540Z,52.49
2023-04-19T09:47:26.857Z,51.28
2023-04-19T09:50:31.901Z,50.43
2023-04-19T09:53:36.951Z,51.99
2023-04-19T09:56:41.097Z,51.41
2023-04-19T09:59:44.910Z,50.76
2023-04-19T10:02:56.043Z,50.58
2023-04-19T10:06:04.360Z,49.19
2023-04-19T10:09:14.551Z,48.73
2023-04-19T10:12:38.984Z,48.58
2023-04-19T10:15:52.694Z,47.74
2023-04-19T10:19:02.885Z,49.99
2023-04-19T10:22:08.053Z,48.42
2023-04-19T10:25:13.925Z,48.16
2023-04-19T10:28:18.036Z,49.56
2023-04-19T10:31:23.773Z,48.29
2023-04-19T10:34:40.541Z,47.33
2023-04-19T10:38:03.630Z,46.99
2023-04-19T10:41:15.521Z,45.99
2023-04-19T10:44:19.869Z,46.59
2023-04-19T10:47:45.495Z,46.40
2023-04-19T10:54:33.527Z,45.56
2023-04-19T10:58:05.537Z,48.95
2023-04-19T11:01:45.779Z,47.28
2023-04-19T11:04:49.075Z,46.72
2023-04-19T11:07:52.197Z,48.48
2023-04-19T11:10:57.719Z,47.53
2023-04-19T11:14:03.092Z,47.53
2023-04-19T11:17:18.531Z,47.76
2023-04-19T11:20:24.600Z,47.00
2023-04-19T11:23:27.764Z,46.66
2023-04-19T11:26:31.502Z,47.03
2023-04-19T11:29:34.464Z,44.20
2023-04-19T11:32:37.775Z,43.70
2023-04-19T11:35:41.639Z,42.28
2023-04-19T11:38:48.790Z,45.34
2023-04-19T11:41:53.165Z,43.73
2023-04-19T11:44:58.495Z,47.44
2023-04-19T11:48:02.114Z,45.02
2023-04-19T11:51:08.637Z,44.69
2023-04-19T11:54:15.014Z,44.39
2023-04-19T11:57:28.885Z,42.79
2023-04-19T12:00:32.352Z,43.41
2023-04-19T12:03:58.987Z,45.05
2023-04-19T12:07:03.754Z,46.45
2023-04-19T12:10:11.818Z,49.21
2023-04-19T12:13:18.977Z,50.51
2023-04-19T12:16:29.095Z,50.30
2023-04-19T12:19:37.333Z,50.34
2023-04-19T12:22:40.786Z,49.04
2023-04-19T12:25:47.625Z,50.05
2023-04-19T12:28:50.664Z,50.24
2023-04-19T12:31:54.141Z,51.27
2023-04-19T12:34:57.603Z,52.66
2023-04-19T12:38:01.250Z,54.87
2023-04-19T12:41:04.804Z,56.57
2023-04-19T12:44:08.765Z,56.68
2023-04-19T12:47:12.063Z,56.99
2023-04-19T12:50:16.330Z,57.08
2023-04-19T12:53:19.454Z,58.24
2023-04-19T12:56:23.251Z,58.45
2023-04-19T12:59:28.175Z,58.97
2023-04-19T13:02:31.351Z,59.50
2023-04-19T13:05:34.729Z,59.00
2023-04-19T13:08:45.538Z,59.59
2023-04-19T13:11:51.239Z,60.30
2023-04-19T13:14:54.946Z,59.85
2023-04-19T13:17:58.232Z,60.60
2023-04-19T13:21:01.221Z,60.29
2023-04-19T13:24:04.356Z,60.46
2023-04-19T13:27:08.917Z,60.36
2023-04-19T13:30:13.112Z,62.19
2023-04-19T13:33:16.384Z,62.88
2023-04-19T13:36:20.132Z,62.62
2023-04-19T13:39:26.088Z,62.33
2023-04-19T13:42:29.788Z,61.70
2023-04-19T13:45:33.260Z,62.44
2023-04-19T13:48:36.242Z,61.12
2023-04-19T13:51:49.539Z,60.96
2023-04-19T13:54:53.362Z,59.56
2023-04-19T13:57:56.177Z,60.28
2023-04-19T14:00:59.529Z,59.26
2023-04-19T14:04:03.223Z,59.02
2023-04-19T14:07:07.366Z,59.49
2023-04-19T14:10:11.201Z,57.03
2023-04-19T14:13:15.386Z,57.90
2023-04-19T14:16:18.435Z,59.00
2023-04-19T14:19:22.013Z,59.44
2023-04-19T14:22:25.225Z,59.91
2023-04-19T14:25:28.352Z,59.26
2023-04-19T14:28:31.581Z,59.09
2023-04-19T14:31:34.903Z,60.44
2023-04-19T14:34:37.960Z,59.87
2023-04-19T14:37:41.017Z,59.60
2023-04-19T14:40:44.330Z,59.68
2023-04-19T14:43:47.786Z,59.94
2023-04-19T14:46:51.228Z,59.47
2023-04-19T14:49:54.291Z,60.37
2023-04-19T14:52:57.475Z,60.38
2023-04-19T14:56:03.940Z,60.23
2023-04-19T14:59:08.253Z,59.38
2023-04-19T15:02:13.630Z,59.47
2023-04-19T15:05:17.358Z,58.77
2023-04-19T15:08:30.033Z,58.36
2023-04-19T15:11:34.664Z,57.86
2023-04-19T15:14:38.853Z,56.90
2023-04-19T15:17:43.448Z,56.13
2023-04-19T15:20:46.598Z,57.58
2023-04-19T15:23:49.908Z,57.14
2023-04-19T15:26:52.992Z,57.18
2023-04-19T15:29:56.093Z,56.10
2023-04-19T15:32:59.637Z,55.64
2023-04-19T15:36:02.797Z,55.82
2023-04-19T15:39:06.051Z,55.09
2023-04-19T15:42:09.541Z,54.65
2023-04-19T15:45:12.840Z,54.58
2023-04-19T15:48:16.197Z,55.81
2023-04-19T15:51:19.052Z,54.72
2023-04-19T15:54:23.176Z,55.00
2023-04-19T15:57:26.591Z,55.13
2023-04-19T16:00:30.389Z,55.49
2023-04-19T16:03:34.158Z,54.74
2023-04-19T16:06:37.504Z,55.59
2023-04-19T16:09:40.851Z,55.01
2023-04-19T16:12:44.308Z,55.73
2023-04-19T16:15:47.607Z,56.83
2023-04-19T16:18:51.225Z,56.99
2023-04-19T16:21:54.463Z,56.34
2023-04-19T16:24:57.301Z,56.54
2023-04-19T16:28:01.008Z,57.39
2023-04-19T16:31:04.255Z,57.39
2023-04-19T16:34:08.276Z,55.61
2023-04-19T16:37:11.559Z,55.22
2023-04-19T16:40:15.163Z,55.51
2023-04-19T16:43:20.882Z,55.47
2023-04-19T16:46:23.977Z,56.47
2023-04-19T16:49:26.868Z,56.42
2023-04-19T16:52:32.822Z,57.53
2023-04-19T16:55:36.549Z,59.22
2023-04-19T16:58:40.274Z,59.29
2023-04-19T17:01:44.487Z,60.17
2023-04-19T17:04:48.087Z,60.55
2023-04-19T17:07:52.564Z,60.55
2023-04-19T17:10:56.291Z,60.82
2023-04-19T17:13:59.717Z,62.14
2023-04-19T17:17:03.015Z,62.37
2023-04-19T17:20:06.559Z,63.50
2023-04-19T17:23:09.566Z,63.72
2023-04-19T17:26:12.685Z,65.19
2023-04-19T17:29:16.086Z,65.34
2023-04-19T17:32:19.408Z,65.23
2023-04-19T17:35:22.896Z,65.26
2023-04-19T17:38:25.997Z,65.37
2023-04-19T17:41:29.125Z,65.86
2023-04-19T17:44:32.077Z,66.19
2023-04-19T17:47:35.488Z,66.50
2023-04-19T17:50:38.771Z,66.64
2023-04-19T17:53:42.566Z,67.06
2023-04-19T17:56:45.892Z,67.14
2023-04-19T17:59:48.871Z,67.63
2023-04-19T18:02:52.268Z,68.39
2023-04-19T18:05:55.457Z,68.59
2023-04-19T18:08:59.280Z,68.80
2023-04-19T18:12:02.978Z,69.19
2023-04-19T18:15:06.842Z,69.51
2023-04-19T18:18:09.958Z,69.78
2023-04-19T18:21:13.029Z,69.59
2023-04-19T18:24:16.444Z,69.77
2023-04-19T18:27:19.739Z,70.46
2023-04-19T18:30:22.819Z,70.50
2023-04-19T18:33:26.512Z,71.04
2023-04-19T18:36:29.886Z,70.50
2023-04-19T18:39:33.484Z,69.87
2023-04-19T18:42:36.810Z,70.08
2023-04-19T18:45:39.854Z,70.70
2023-04-19T18:48:42.852Z,70.27
2023-04-19T18:51:47.313Z,69.84
2023-04-19T18:54:50.747Z,71.04
2023-04-19T18:57:54.480Z,68.38
2023-04-19T19:00:58.691Z,69.87
2023-04-19T19:07:27.296Z,69.93
2023-04-19T19:10:54.216Z,71.01
2023-04-19T19:13:54.608Z,72.33
2023-04-19T19:16:58.948Z,72.48
2023-04-19T19:20:02.251Z,70.03
2023-04-19T19:23:06.144Z,70.93
2023-04-19T19:26:12.525Z,71.65
2023-04-19T19:29:17.843Z,69.84
2023-04-19T19:32:21.819Z,70.06
2023-04-19T19:35:25.264Z,70.01
2023-04-19T19:38:28.293Z,71.14
2023-04-19T19:42:03.390Z,72.10
2023-04-19T19:44:55.879Z,71.56
2023-04-19T19:48:00.165Z,70.74
2023-04-19T19:51:31.388Z,73.02
2023-04-19T19:54:27.684Z,72.93
2023-04-19T20:00:46.335Z,70.78
2023-04-19T20:03:52.051Z,71.78
2023-04-19T20:10:01.501Z,70.88
2023-04-19T20:13:06.410Z,72.14
2023-04-19T20:16:10.251Z,71.75
2023-04-19T20:19:14.023Z,72.12
2023-04-19T20:22:17.690Z,72.06
2023-04-19T20:25:21.043Z,71.93
2023-04-19T20:28:24.556Z,71.89
2023-04-19T20:31:28.097Z,71.25
2023-04-19T20:34:31.401Z,71.63
2023-04-19T20:37:37.743Z,70.94
2023-04-19T20:40:41.444Z,70.82
2023-04-19T20:43:44.819Z,69.76
2023-04-19T20:46:49.273Z,69.81
2023-04-19T20:49:53.066Z,69.97
2023-04-19T20:52:56.875Z,70.44
2023-04-19T20:56:01.381Z,70.36
2023-04-19T20:59:04.809Z,70.49
2023-04-19T21:02:08.549Z,69.60
2023-04-19T21:05:11.906Z,69.96
2023-04-19T21:08:16.227Z,69.82
2023-04-19T21:11:19.417Z,69.34
2023-04-19T21:14:22.766Z,69.75
2023-04-19T21:17:26.301Z,69.38
2023-04-19T21:20:29.649Z,68.99
2023-04-19T21:23:32.902Z,70.07
2023-04-19T21:26:36.388Z,70.25
2023-04-19T21:29:39.957Z,71.33
2023-04-19T21:32:42.987Z,70.78
2023-04-19T21:35:46.312Z,71.09
2023-04-19T21:38:49.416Z,72.01
2023-04-19T21:41:52.536Z,71.82
2023-04-19T21:44:55.769Z,71.91
2023-04-19T21:47:59.347Z,72.61
2023-04-19T21:51:02.663Z,72.26
2023-04-19T21:54:06.181Z,71.68
2023-04-19T21:57:09.172Z,72.88
2023-04-19T22:00:13.924Z,72.91
2023-04-19T22:03:17.502Z,72.21
2023-04-19T22:06:22.114Z,72.22
2023-04-19T22:09:28.759Z,71.49
2023-04-19T22:12:34.061Z,71.63
2023-04-19T22:15:38.405Z,71.47
2023-04-19T22:18:41.910Z,71.37
2023-04-19T22:21:47.073Z,73.31
2023-04-19T22:24:57.420Z,73.13
2023-04-19T22:28:00.870Z,73.27
2023-04-19T22:31:04.243Z,73.51
2023-04-19T22:34:07.279Z,72.75
2023-04-19T22:37:10.636Z,72.87
2023-04-19T22:40:13.971Z,73.76
2023-04-19T22:43:17.132Z,73.07
2023-04-19T22:46:20.427Z,72.08
2023-04-19T22:49:24.237Z,73.65
2023-04-19T22:52:27.944Z,73.50
2023-04-19T22:55:31.024Z,72.32
2023-04-19T22:58:34.259Z,72.07
2023-04-19T23:01:37.595Z,71.83
2023-04-19T23:04:41.121Z,71.56
2023-04-19T23:07:45.381Z,72.38
2023-04-19T23:10:51.155Z,71.48
2023-04-19T23:13:54.198Z,71.85
2023-04-19T23:16:57.722Z,72.08
2023-04-19T23:20:00.759Z,73.31
2023-04-19T23:23:05.328Z,73.83
2023-04-19T23:26:08.198Z,75.57
2023-04-19T23:29:11.177Z,74.72
2023-04-19T23:32:14.630Z,74.44
2023-04-19T23:35:18.188Z,74.59
2023-04-19T23:38:21.154Z,74.34
2023-04-19T23:41:24.246Z,74.54
2023-04-19T23:44:27.443Z,74.57
2023-04-19T23:47:30.775Z,74.32
2023-04-19T23:50:33.882Z,74.32
2023-04-19T23:53:38.732Z,74.43
2023-04-19T23:56:41.839Z,74.53
2023-04-19T23:59:45.081Z,74.20
